Time;durP1;ratioP1;P1;durP2;ratioP2;P2;SDS_P1;SDS_P2;PMS_P1;PMS_P2;Temp;Humidity;BMP_temperature;BMP_pressure;BME280_temperature;BME280_humidity;BME280_pressure;Samples;Min_cycle;Max_cycle;Signal;HPM_P1;HPM_P2
2021/12/05 00:18:33;;;;;;;9.18;4.43;;;;;;;3.67;81.05;98289.34;4996151;28;20517;-63
2021/12/05 00:24:01;;;;;;;7.70;4.40;;;;;;;3.66;80.38;98283.34;4995979;28;20108;-62
2021/12/05 00:26:31;;;;;;;9.55;3.47;;;;;;;3.67;80.95;98284.22;4996289;28;20065;-62
2021/12/05 00:29:08;;;;;;;13.95;4.93;;;;;;;3.66;81.43;98285.06;4996254;28;20042;-62
2021/12/05 00:32:00;;;;;;;14.35;3.45;;;;;;;3.67;81.18;98286.78;4996270;28;20049;-63
2021/12/05 00:45:57;;;;;;;14.07;3.42;;;;;;;3.64;80.82;98271.34;4978390;28;19914;-63
2021/12/05 00:48:49;;;;;;;9.13;3.53;;;;;;;3.64;80.49;98267.09;4962493;28;20433;-62
2021/12/05 01:02:16;;;;;;;16.05;3.92;;;;;;;3.63;80.57;98283.31;4978173;28;20061;-62
2021/12/05 01:15:49;;;;;;;24.58;3.65;;;;;;;3.63;80.90;98280.75;4995170;28;20053;-63
2021/12/05 01:18:23;;;;;;;13.73;3.92;;;;;;;3.62;80.32;98279.03;4994988;28;20042;-62
2021/12/05 01:20:57;;;;;;;;;;;;;;;3.56;80.92;98278.91;4978101;28;20129;-62
2021/12/05 01:23:40;;;;;;;11.43;3.40;;;;;;;3.56;80.85;98281.47;4961631;28;19921;-62
2021/12/05 01:26:20;;;;;;;10.40;3.55;;;;;;;3.56;80.57;98285.75;4977877;28;20035;-63
2021/12/05 01:29:00;;;;;;;9.10;3.72;;;;;;;3.55;80.37;98277.19;4977487;28;20113;-63
2021/12/05 01:31:46;;;;;;;9.38;3.42;;;;;;;3.57;80.21;98288.31;4977649;28;20470;-63
2021/12/05 01:56:37;;;;;;;9.60;2.92;;;;;;;3.53;80.71;98289.09;4994247;28;20544;-63
2021/12/05 02:15:54;;;;;;;10.77;3.15;;;;;;;3.52;80.47;98289.09;4994466;28;20042;-63
2021/12/05 02:33:04;;;;;;;6.55;2.90;;;;;;;3.50;80.39;98272.00;4976767;28;20375;-63
2021/12/05 02:43:25;;;;;;;8.23;3.15;;;;;;;3.52;80.75;98269.44;4998205;28;20045;-62
2021/12/05 02:45:53;;;;;;;5.55;2.53;;;;;;;3.50;80.57;98258.34;4964205;28;20482;-62
2021/12/05 02:48:26;;;;;;;4.95;2.30;;;;;;;3.48;80.34;98244.66;4997807;28;20089;-63
2021/12/05 02:51:00;;;;;;;4.72;2.53;;;;;;;3.49;80.41;98256.63;4997662;28;20490;-64
2021/12/05 02:53:40;;;;;;;14.65;4.05;;;;;;;3.49;80.72;98247.22;4997591;28;20121;-63
2021/12/05 02:56:15;;;;;;;13.65;3.50;;;;;;;3.48;80.17;98252.34;4997714;28;20035;-63
2021/12/05 02:58:57;;;;;;;4.93;2.70;;;;;;;3.48;80.19;98236.97;4998130;28;20041;-62
2021/12/05 03:03:56;;;;;;;9.55;3.42;;;;;;;3.47;80.08;98233.53;4997702;28;20034;-62
2021/12/05 03:06:28;;;;;;;4.20;2.47;;;;;;;3.47;80.06;98225.84;4980127;28;20070;-62
2021/12/05 03:09:07;;;;;;;;;;;;;;;3.46;80.34;98225.81;4981088;28;20077;-62
2021/12/05 03:11:39;;;;;;;5.10;2.63;;;;;;;3.44;80.69;98230.06;4980030;28;19949;-62
2021/12/05 03:14:08;;;;;;;4.35;2.50;;;;;;;3.45;80.60;98224.09;4979920;28;20084;-62
2021/12/05 03:16:41;;;;;;;10.40;2.90;;;;;;;3.44;80.66;98219.81;4979970;28;20034;-62
2021/12/05 03:19:13;;;;;;;4.20;2.70;;;;;;;3.44;80.30;98224.94;4980253;28;20042;-64
2021/12/05 03:21:46;;;;;;;6.03;2.17;;;;;;;3.45;80.24;98221.53;4997686;28;20121;-63
2021/12/05 03:24:14;;;;;;;13.52;2.78;;;;;;;3.44;80.02;98225.78;4964113;28;20039;-63
2021/12/05 03:26:42;;;;;;;6.85;3.20;;;;;;;3.46;80.02;98215.59;4979624;28;20065;-63
2021/12/05 03:29:14;;;;;;;7.30;3.08;;;;;;;3.44;79.84;98214.69;4963409;28;20568;-63
2021/12/05 03:31:46;;;;;;;7.30;2.63;;;;;;;3.41;80.54;98204.41;4979706;28;20038;-64
2021/12/05 03:34:18;;;;;;;13.45;3.65;;;;;;;3.43;80.25;98202.72;4979848;28;20073;-63
2021/12/05 03:36:55;;;;;;;8.32;2.58;;;;;;;3.41;80.13;98209.53;4979785;28;20049;-63
2021/12/05 03:39:24;;;;;;;5.85;2.70;;;;;;;3.43;80.66;98212.97;4996899;28;20122;-63
2021/12/05 03:41:54;;;;;;;9.57;2.60;;;;;;;3.43;80.09;98216.38;4963513;28;20030;-62
2021/12/05 03:44:29;;;;;;;6.32;2.53;;;;;;;3.44;80.33;98217.25;4963179;28;20038;-63
2021/12/05 03:46:59;;;;;;;7.80;2.75;;;;;;;3.42;80.25;98212.13;4996379;28;20030;-63
2021/12/05 03:49:31;;;;;;;4.20;2.45;;;;;;;3.43;79.96;98207.84;4995514;28;20379;-62
2021/12/05 03:52:08;;;;;;;5.95;3.17;;;;;;;3.41;80.45;98212.06;4962984;28;20129;-63
2021/12/05 03:54:43;;;;;;;6.78;2.65;;;;;;;3.41;80.30;98207.84;4996582;28;20125;-62
2021/12/05 03:57:14;;;;;;;4.72;2.63;;;;;;;3.42;80.46;98211.25;4963197;28;20117;-62
2021/12/05 03:59:44;;;;;;;5.65;2.60;;;;;;;3.43;80.21;98207.84;4996993;28;20049;-62
2021/12/05 04:02:19;;;;;;;5.55;2.45;;;;;;;3.43;80.12;98213.81;4978813;28;20058;-62
2021/12/05 04:04:49;;;;;;;4.68;2.33;;;;;;;3.43;80.22;98206.13;4979111;28;20043;-62
2021/12/05 04:07:20;;;;;;;6.75;2.83;;;;;;;3.42;79.85;98209.56;4996396;28;20064;-63
2021/12/05 04:09:49;;;;;;;11.20;2.92;;;;;;;3.42;80.32;98203.56;4979048;28;20046;-62
2021/12/05 04:12:23;;;;;;;3.13;2.83;;;;;;;3.42;80.03;98214.69;4979518;28;20049;-62
2021/12/05 04:14:56;;;;;;;9.35;3.13;;;;;;;3.44;80.05;98212.13;4978823;28;20393;-63
2021/12/05 04:17:22;;;;;;;8.48;2.85;;;;;;;3.43;80.06;98195.88;4996153;28;20122;-62
2021/12/05 04:19:49;;;;;;;7.10;3.33;;;;;;;3.43;80.55;98198.44;4996068;28;20501;-63
2021/12/05 04:22:18;;;;;;;3.08;2.13;;;;;;;3.44;80.07;98191.63;4962512;28;20393;-63
2021/12/05 04:24:47;;;;;;;3.70;2.28;;;;;;;3.43;80.21;98210.41;4962896;28;20039;-62
2021/12/05 04:27:21;;;;;;;5.20;2.83;;;;;;;3.41;80.42;98189.91;4962445;28;20065;-63
2021/12/05 04:29:55;;;;;;;7.40;3.55;;;;;;;3.42;80.26;98188.19;4995980;28;20089;-62
2021/12/05 04:32:29;;;;;;;3.78;1.88;;;;;;;3.42;80.17;98190.75;4978552;28;20065;-62
2021/12/05 04:34:59;;;;;;;5.03;2.75;;;;;;;3.40;80.09;98188.19;4995900;28;20113;-63
2021/12/05 04:37:27;;;;;;;4.93;2.72;;;;;;;3.40;80.09;98188.19;4962437;28;20046;-62
2021/12/05 04:40:01;;;;;;;5.60;2.65;;;;;;;3.41;79.60;98184.78;4962292;28;20050;-62
2021/12/05 04:42:34;;;;;;;4.80;2.53;;;;;;;3.42;80.62;98183.06;4978379;28;20034;-62
2021/12/05 04:45:05;;;;;;;3.92;2.17;;;;;;;3.41;80.22;98183.91;4995642;28;20038;-62
2021/12/05 04:47:33;;;;;;;5.63;2.58;;;;;;;3.43;79.87;98182.22;4962324;28;20035;-62
2021/12/05 04:50:10;;;;;;;4.78;2.10;;;;;;;3.42;79.58;98178.81;4995617;28;20077;-62
2021/12/05 04:52:41;;;;;;;5.32;2.50;;;;;;;3.44;79.82;98178.84;4995625;28;20046;-63
2021/12/05 04:55:15;;;;;;;4.53;3.00;;;;;;;3.43;80.17;98190.75;4977954;28;20034;-62
2021/12/05 04:57:44;;;;;;;6.38;2.47;;;;;;;3.46;80.51;98192.53;4995387;28;20144;-62
2021/12/05 05:00:18;;;;;;;5.55;2.67;;;;;;;3.44;80.40;98179.69;4978325;28;20478;-63
2021/12/05 05:02:53;;;;;;;6.88;2.90;;;;;;;3.43;80.31;98180.53;4974913;28;20492;-63
2021/12/05 05:05:28;;;;;;;5.10;2.58;;;;;;;3.45;79.91;98180.56;4975642;28;20101;-63
2021/12/05 05:07:59;;;;;;;9.00;3.10;;;;;;;3.46;80.08;98180.56;4974565;28;20054;-63
2021/12/05 05:10:33;;;;;;;8.52;2.53;;;;;;;3.46;80.42;98184.84;4975819;28;20042;-63
2021/12/05 05:13:05;;;;;;;5.28;2.30;;;;;;;3.45;80.12;98186.53;4974738;28;20039;-63
2021/12/05 05:15:36;;;;;;;3.58;2.22;;;;;;;3.45;79.77;98185.69;4974908;28;20043;-63
2021/12/05 05:18:08;;;;;;;3.33;2.40;;;;;;;3.46;79.80;98180.56;4975634;28;20045;-63
2021/12/05 05:20:41;;;;;;;5.63;2.65;;;;;;;3.46;79.75;98179.72;4975526;28;20050;-63
2021/12/05 05:23:37;;;;;;;7.45;3.25;;;;;;;3.47;79.71;98186.56;4975398;28;20577;-63
2021/12/05 05:26:49;;;;;;;11.13;3.25;;;;;;;3.46;79.90;98188.25;4975446;28;20118;-62
2021/12/05 05:48:34;;;;;;;5.63;2.60;;;;;;;3.47;79.50;98209.63;4974512;28;20027;-62
2021/12/05 05:51:09;;;;;;;3.97;2.30;;;;;;;3.47;79.77;98218.16;4974806;28;20430;-62
2021/12/05 05:53:37;;;;;;;6.07;2.55;;;;;;;3.48;79.73;98207.06;4975074;28;20495;-62
2021/12/05 05:56:11;;;;;;;6.90;2.75;;;;;;;3.49;80.47;98218.19;4974905;28;20034;-63
2021/12/05 05:59:16;;;;;;;7.03;3.05;;;;;;;3.47;79.62;98210.47;4975269;28;20124;-63
2021/12/05 06:03:18;;;;;;;4.85;3.17;;;;;;;3.50;79.43;98212.25;4976143;28;20070;-63
2021/12/05 06:04:33;;;;;;;4.47;3.00;;;;;;;3.50;79.83;98214.81;4993665;28;20069;-63
2021/12/05 06:07:07;;;;;;;8.85;2.80;;;;;;;3.46;80.21;98211.31;4960958;28;20053;-63
2021/12/05 06:09:35;;;;;;;9.38;3.08;;;;;;;3.48;79.83;98206.22;4977096;28;20382;-63
2021/12/05 06:12:01;;;;;;;4.65;2.50;;;;;;;3.49;79.95;98215.63;4960224;28;20126;-63
2021/12/05 06:14:33;;;;;;;7.43;2.85;;;;;;;3.49;79.70;98213.06;4994021;28;20394;-62
2021/12/05 06:17:03;;;;;;;5.25;2.95;;;;;;;3.47;80.08;98214.75;4960596;28;20545;-62
2021/12/05 06:19:34;;;;;;;5.15;3.20;;;;;;;3.47;80.38;98214.75;4960385;28;20549;-62
2021/12/05 06:22:02;;;;;;;5.97;3.17;;;;;;;3.47;79.58;98209.63;4976819;28;20034;-63
2021/12/05 06:24:42;;;;;;;6.25;3.13;;;;;;;3.48;80.18;98224.16;4994252;28;20042;-63
2021/12/05 06:27:13;;;;;;;6.18;3.05;;;;;;;3.48;80.02;98219.03;4994122;28;20038;-62
2021/12/05 06:29:52;;;;;;;6.47;3.05;;;;;;;3.49;79.88;98215.63;4960517;28;20034;-63
2021/12/05 06:36:49;;;;;;;7.63;2.88;;;;;;;3.48;79.81;98229.28;4961365;28;20046;-63
2021/12/05 06:48:57;;;;;;;8.15;3.28;;;;;;;3.45;80.25;98236.91;4993484;28;20042;-63
2021/12/05 06:51:32;;;;;;;6.95;3.60;;;;;;;3.46;79.96;98243.75;4976926;28;20042;-63
2021/12/05 06:54:00;;;;;;;4.38;3.05;;;;;;;3.45;80.06;98232.63;4976969;28;20042;-63
2021/12/05 06:56:33;;;;;;;5.60;2.20;;;;;;;3.46;80.05;98243.75;4993794;28;20058;-63
2021/12/05 06:59:01;;;;;;;3.08;2.78;;;;;;;3.47;80.08;98240.34;4976700;28;20042;-63
2021/12/05 07:01:32;;;;;;;5.30;3.15;;;;;;;3.47;80.37;98248.88;4976016;28;20038;-63
2021/12/05 07:04:13;;;;;;;4.47;2.85;;;;;;;3.49;80.11;98236.13;4993987;28;20129;-63
2021/12/05 07:06:44;;;;;;;6.43;3.15;;;;;;;3.48;80.27;98247.22;4976233;28;20551;-63
2021/12/05 07:09:12;;;;;;;7.47;3.38;;;;;;;3.48;79.79;98244.66;4993657;28;20034;-62
2021/12/05 07:11:49;;;;;;;6.45;3.50;;;;;;;3.49;80.05;98251.50;4976225;28;20097;-62
2021/12/05 07:15:03;;;;;;;4.55;2.67;;;;;;;3.48;79.69;98250.63;4976524;28;20085;-62
2021/12/05 07:17:08;;;;;;;5.63;3.20;;;;;;;3.48;80.17;98245.50;4990417;28;20069;-62
2021/12/05 07:25:37;;;;;;;4.95;4.45;;;;;;;3.47;79.69;98246.34;4997134;28;20105;-63
2021/12/05 07:42:08;;;;;;;4.40;2.65;;;;;;;3.47;80.15;98259.13;4997107;28;20121;-62
2021/12/05 07:44:42;;;;;;;5.32;3.17;;;;;;;3.46;80.06;98267.66;4979305;28;20045;-62
2021/12/05 07:47:18;;;;;;;4.90;3.40;;;;;;;3.45;79.94;98263.38;4979613;28;20034;-62
2021/12/05 07:49:48;;;;;;;4.68;3.85;;;;;;;3.47;79.61;98268.53;4996958;28;20071;-61
2021/12/05 07:52:21;;;;;;;6.05;3.38;;;;;;;3.47;80.13;98271.94;4996850;28;20117;-61
2021/12/05 07:54:59;;;;;;;6.73;3.50;;;;;;;3.46;80.20;98271.94;4962978;28;20089;-62
2021/12/05 07:57:41;;;;;;;8.30;3.80;;;;;;;3.46;80.56;98272.78;4996528;28;20042;-63
2021/12/05 08:00:25;;;;;;;4.85;2.75;;;;;;;3.47;80.09;98286.47;4962856;28;20034;-63
2021/12/05 08:16:49;;;;;;;10.13;4.15;;;;;;;3.46;80.13;98294.97;4996476;28;19925;-63
2021/12/05 08:19:18;;;;;;;6.47;3.83;;;;;;;3.46;80.45;98300.09;4962806;28;20043;-63
2021/12/05 08:21:58;;;;;;;3.72;2.95;;;;;;;3.48;80.29;98301.00;4996230;28;20038;-62
2021/12/05 08:24:35;;;;;;;5.13;3.55;;;;;;;3.46;80.00;98300.94;4978723;28;20038;-63
2021/12/05 08:27:07;;;;;;;5.32;3.03;;;;;;;3.47;79.93;98295.00;4978921;28;20125;-63
2021/12/05 08:29:47;;;;;;;6.57;3.20;;;;;;;3.49;80.25;98306.13;4977979;28;20031;-62
2021/12/05 08:32:50;;;;;;;5.70;3.05;;;;;;;3.48;80.01;98306.97;4978607;28;20108;-63
2021/12/05 08:35:38;;;;;;;6.80;3.55;;;;;;;3.48;79.72;98304.41;4995083;28;20490;-63
2021/12/05 08:41:43;;;;;;;6.88;4.30;;;;;;;3.49;79.92;98310.41;4978202;28;20077;-63
2021/12/05 08:46:25;;;;;;;5.45;3.03;;;;;;;3.50;80.25;98309.56;4978076;28;20038;-62
2021/12/05 09:25:46;;;;;;;5.13;3.05;;;;;;;3.46;80.07;98351.34;4994866;28;20030;-63
2021/12/05 10:06:57;;;;;;;7.03;3.22;;;;;;;3.46;80.31;98388.03;4994361;28;20122;-63
2021/12/05 10:15:13;;;;;;;4.05;2.90;;;;;;;3.48;80.17;98400.91;4976636;28;20038;-63
2021/12/05 10:18:26;;;;;;;6.70;2.97;;;;;;;3.47;79.99;98389.78;4994634;28;20488;-63
2021/12/05 10:37:51;;;;;;;2.80;2.40;;;;;;;3.49;80.47;98407.75;4976732;28;20143;-63
2021/12/05 10:40:30;;;;;;;3.33;2.80;;;;;;;3.50;80.12;98414.59;4960573;28;20039;-64
2021/12/05 10:42:58;;;;;;;4.47;2.65;;;;;;;3.50;80.55;98407.75;4994166;28;20038;-63
2021/12/05 10:45:27;;;;;;;3.75;2.90;;;;;;;3.51;80.09;98413.72;4976444;28;20121;-63
2021/12/05 10:47:56;;;;;;;4.32;3.13;;;;;;;3.51;80.12;98418.84;4993780;28;20120;-62
2021/12/05 10:50:39;;;;;;;3.08;2.60;;;;;;;3.53;79.76;98424.03;4993676;28;20425;-62
2021/12/05 10:53:20;;;;;;;3.03;2.72;;;;;;;3.50;79.79;98435.09;4976408;28;20053;-62
2021/12/05 10:55:56;;;;;;;2.95;2.60;;;;;;;3.50;80.53;98433.38;4993825;28;20078;-63
2021/12/05 10:58:23;;;;;;;4.28;2.72;;;;;;;3.51;79.88;98431.66;4994826;28;20043;-63
2021/12/05 11:01:03;;;;;;;5.15;2.78;;;;;;;3.51;80.30;98434.22;4997573;28;20038;-63
2021/12/05 11:03:29;;;;;;;2.47;2.28;;;;;;;3.52;80.12;98438.50;4963749;28;20042;-63
2021/12/05 11:05:54;;;;;;;3.40;3.10;;;;;;;3.52;80.43;98433.41;4979961;28;20042;-63
2021/12/05 11:08:31;;;;;;;2.50;2.30;;;;;;;3.52;80.45;98438.50;4997495;28;20100;-63
2021/12/05 11:11:07;;;;;;;3.35;2.03;;;;;;;3.54;80.41;98446.25;4980170;28;20038;-62
2021/12/05 11:13:36;;;;;;;4.18;2.10;;;;;;;3.54;79.95;98446.25;4997320;28;20378;-62
2021/12/05 11:16:02;;;;;;;3.28;2.42;;;;;;;3.54;79.55;98441.97;4963643;28;20060;-62
2021/12/05 11:18:44;;;;;;;2.78;2.42;;;;;;;3.55;80.49;98448.81;4963330;28;20073;-62
2021/12/05 11:21:33;;;;;;;2.20;2.00;;;;;;;3.55;79.80;98451.38;4964007;28;20038;-62
2021/12/05 11:24:16;;;;;;;2.65;2.42;;;;;;;3.54;80.12;98452.22;4980012;28;20121;-63
2021/12/05 11:26:45;;;;;;;2.55;2.22;;;;;;;3.56;80.05;98452.28;4980090;28;20038;-63
2021/12/05 11:29:11;;;;;;;2.40;2.20;;;;;;;3.58;79.95;98453.16;4979543;28;20077;-63
2021/12/05 11:31:38;;;;;;;2.40;2.20;;;;;;;3.58;79.96;98454.00;4963782;28;20089;-63
2021/12/05 11:34:05;;;;;;;2.95;2.30;;;;;;;3.58;80.27;98460.84;4963454;28;20030;-63
2021/12/05 11:36:38;;;;;;;3.95;2.55;;;;;;;3.57;79.95;98454.00;4979550;28;20042;-63
2021/12/05 11:39:21;;;;;;;2.33;2.13;;;;;;;3.57;79.69;98454.84;4996925;28;20405;-63
2021/12/05 11:41:47;;;;;;;2.97;1.73;;;;;;;3.58;80.40;98454.00;4963275;28;20089;-63
2021/12/05 11:44:20;;;;;;;2.00;1.83;;;;;;;3.59;80.01;98460.00;4996692;28;20038;-62
2021/12/05 11:46:47;;;;;;;2.22;2.03;;;;;;;3.60;80.64;98461.72;4979613;28;20049;-63
2021/12/05 11:49:22;;;;;;;2.60;2.35;;;;;;;3.59;80.17;98470.22;4996733;28;20494;-62
2021/12/05 11:51:57;;;;;;;2.00;1.88;;;;;;;3.58;80.01;98469.38;4963859;28;20043;-62
2021/12/05 11:54:33;;;;;;;3.17;2.47;;;;;;;3.61;80.03;98478.81;4963591;28;20031;-62
2021/12/05 11:57:07;;;;;;;2.28;2.08;;;;;;;3.60;79.97;98471.97;4979379;28;20121;-62
2021/12/05 11:59:40;;;;;;;2.88;2.58;;;;;;;3.61;80.16;98474.56;4996773;28;20122;-62
2021/12/05 12:02:12;;;;;;;3.65;3.08;;;;;;;3.60;79.65;98475.41;4959281;28;20055;-63
2021/12/05 12:04:40;;;;;;;2.55;2.35;;;;;;;3.60;79.92;98477.09;4975832;28;20512;-63
2021/12/05 12:07:24;;;;;;;3.22;2.30;;;;;;;3.60;79.77;98475.41;4959877;28;20121;-63
2021/12/05 12:09:54;;;;;;;2.17;1.98;;;;;;;3.61;80.66;98484.81;4976127;28;20470;-62
2021/12/05 12:12:22;;;;;;;2.92;2.72;;;;;;;3.61;79.78;98477.13;4976794;28;20041;-63
2021/12/05 12:14:48;;;;;;;2.17;1.98;;;;;;;3.62;79.74;98478.88;4960153;28;20027;-63
2021/12/05 12:17:16;;;;;;;2.40;2.20;;;;;;;3.62;80.27;98481.44;4975673;28;20043;-63
2021/12/05 12:19:45;;;;;;;2.90;2.20;;;;;;;3.62;79.87;98481.44;4975525;28;20077;-63
2021/12/05 12:22:12;;;;;;;3.60;2.75;;;;;;;3.62;79.80;98477.97;4959494;28;20149;-63
2021/12/05 12:24:40;;;;;;;3.65;2.78;;;;;;;3.62;80.39;98486.56;4976719;28;20062;-63
2021/12/05 12:27:07;;;;;;;4.07;3.45;;;;;;;3.63;80.40;98483.16;4975449;28;20047;-63
2021/12/05 12:29:33;;;;;;;3.55;3.08;;;;;;;3.63;79.91;98482.28;4976354;28;20375;-63
2021/12/05 12:32:12;;;;;;;3.38;2.97;;;;;;;3.64;80.27;98479.75;4959381;28;20039;-63
2021/12/05 12:34:39;;;;;;;3.42;2.60;;;;;;;3.62;79.60;98475.41;4975410;28;20035;-63
2021/12/05 12:37:07;;;;;;;3.88;3.03;;;;;;;3.63;80.07;98482.28;4975194;28;20395;-63
2021/12/05 12:39:40;;;;;;;3.58;2.75;;;;;;;3.63;79.91;98484.84;4959016;28;20434;-63
2021/12/05 12:42:16;;;;;;;4.25;3.15;;;;;;;3.62;80.48;98486.56;4959490;28;20038;-63
2021/12/05 12:45:16;;;;;;;4.40;2.78;;;;;;;3.62;80.19;98490.78;4959028;28;20517;-62
2021/12/05 12:47:56;;;;;;;3.80;2.80;;;;;;;3.63;79.85;98489.97;4975109;28;20078;-63
2021/12/05 12:50:51;;;;;;;3.30;3.00;;;;;;;3.62;80.22;98488.22;4959656;28;20046;-61
2021/12/05 12:53:26;;;;;;;2.97;2.78;;;;;;;3.61;79.79;98497.63;4976382;28;20042;-62
2021/12/05 12:56:01;;;;;;;3.40;3.10;;;;;;;3.63;80.59;98501.09;4976327;28;20035;-62
2021/12/05 12:58:46;;;;;;;2.83;2.58;;;;;;;3.63;79.96;98503.66;4975974;28;20039;-63
2021/12/05 13:10:05;;;;;;;2.83;2.55;;;;;;;3.65;79.75;98522.50;4995433;28;20514;-63
2021/12/05 13:12:52;;;;;;;2.67;2.47;;;;;;;3.65;80.35;98519.03;4995401;28;20165;-63
2021/12/05 13:15:29;;;;;;;4.70;3.08;;;;;;;3.65;80.10;98524.16;4995504;28;20042;-63
2021/12/05 13:18:13;;;;;;;3.65;2.70;;;;;;;3.67;80.08;98530.19;4994980;28;20058;-63
2021/12/05 13:20:44;;;;;;;;;;;;;;;3.65;80.23;98539.53;4962167;28;20034;-63
2021/12/05 13:23:11;;;;;;;3.20;2.90;;;;;;;3.64;80.54;98528.44;4995123;28;19913;-63
2021/12/05 13:25:58;;;;;;;3.38;3.08;;;;;;;3.64;80.57;98538.69;4994622;28;20038;-63
2021/12/05 13:28:32;;;;;;;3.50;3.20;;;;;;;3.66;80.60;98544.69;4995256;28;20030;-63
2021/12/05 13:31:26;;;;;;;3.92;3.03;;;;;;;3.65;80.43;98548.13;4994721;28;20034;-63
2021/12/05 13:34:14;;;;;;;3.75;3.42;;;;;;;3.67;80.43;98550.69;4961072;28;20402;-63
2021/12/05 13:36:40;;;;;;;3.22;2.92;;;;;;;3.68;79.93;98554.09;4995120;28;20113;-62
2021/12/05 13:39:41;;;;;;;4.43;3.05;;;;;;;3.68;79.93;98554.09;4994594;28;20125;-63
2021/12/05 13:42:12;;;;;;;4.00;3.10;;;;;;;3.68;80.11;98554.09;4961145;28;20093;-62
2021/12/05 13:44:56;;;;;;;3.97;3.58;;;;;;;3.69;80.05;98563.53;4961639;28;20046;-62
2021/12/05 13:47:29;;;;;;;4.45;4.05;;;;;;;3.69;80.70;98558.41;4977441;28;20041;-63
2021/12/05 13:49:56;;;;;;;3.30;2.97;;;;;;;3.69;80.38;98561.84;4961395;28;20038;-63
2021/12/05 13:52:38;;;;;;;3.17;2.72;;;;;;;3.70;80.02;98562.69;4961220;28;20034;-63
2021/12/05 13:55:34;;;;;;;3.83;3.38;;;;;;;3.70;80.28;98566.13;4994612;28;20034;-63
2021/12/05 13:58:40;;;;;;;3.30;3.00;;;;;;;3.71;79.77;98569.53;4961077;28;20417;-62
2021/12/05 14:01:12;;;;;;;3.58;2.90;;;;;;;3.70;79.95;98567.81;4960810;28;20042;-62
2021/12/05 14:03:53;;;;;;;3.25;2.95;;;;;;;3.70;80.49;98567.81;4954617;28;20040;-62
2021/12/05 14:06:27;;;;;;;3.30;2.85;;;;;;;3.72;80.56;98577.28;4955837;28;20042;-63
2021/12/05 14:08:56;;;;;;;3.45;3.15;;;;;;;3.72;80.72;98586.66;4955753;28;20051;-63
2021/12/05 14:11:24;;;;;;;3.47;3.17;;;;;;;3.72;80.23;98587.53;4938389;29;20411;-62
2021/12/05 14:13:58;;;;;;;4.30;3.78;;;;;;;3.72;80.21;98592.66;4955393;28;20035;-62
2021/12/05 14:16:34;;;;;;;3.63;2.95;;;;;;;3.72;80.17;98596.91;4938680;29;20490;-62
2021/12/05 14:19:07;;;;;;;3.85;3.45;;;;;;;3.72;79.81;98599.47;4938195;29;20530;-63
2021/12/05 14:21:39;;;;;;;3.13;2.83;;;;;;;3.72;79.96;98605.47;4938475;29;20050;-63
2021/12/05 14:24:11;;;;;;;4.53;3.80;;;;;;;3.71;80.32;98611.44;4938258;29;20098;-63
2021/12/05 14:26:40;;;;;;;4.53;3.65;;;;;;;3.73;80.53;98614.00;4955869;28;20094;-63
2021/12/05 14:29:16;;;;;;;4.22;3.63;;;;;;;3.73;80.40;98616.56;4954180;29;20549;-63
2021/12/05 14:31:49;;;;;;;3.95;3.55;;;;;;;3.74;80.63;98623.44;4938518;29;20048;-62
2021/12/05 14:34:21;;;;;;;9.82;4.28;;;;;;;3.74;80.13;98628.56;4956295;28;20104;-62
2021/12/05 14:36:57;;;;;;;4.20;3.80;;;;;;;3.74;79.91;98626.00;4959335;28;20047;-62
2021/12/05 14:39:41;;;;;;;4.88;3.33;;;;;;;3.73;80.33;98630.28;4959514;29;20039;-63
2021/12/05 14:42:10;;;;;;;4.45;4.05;;;;;;;3.74;80.25;98631.97;4958361;29;20499;-62
2021/12/05 14:44:41;;;;;;;4.13;3.65;;;;;;;3.73;79.91;98630.28;4959071;28;20407;-62
2021/12/05 14:47:13;;;;;;;5.05;4.07;;;;;;;3.74;80.59;98631.97;4941946;29;20039;-62
2021/12/05 14:49:45;;;;;;;5.78;3.85;;;;;;;3.73;80.08;98640.53;4958213;29;20043;-62
2021/12/05 14:52:28;;;;;;;4.82;4.20;;;;;;;3.75;80.46;98640.53;4942909;29;20046;-63
2021/12/05 14:55:01;;;;;;;4.65;3.97;;;;;;;3.74;80.31;98639.66;4959034;28;20074;-62
2021/12/05 14:57:33;;;;;;;4.57;3.88;;;;;;;3.75;80.43;98654.19;4957803;29;20051;-63
2021/12/05 15:00:26;;;;;;;3.88;3.20;;;;;;;3.74;79.95;98655.03;4959135;28;20035;-62
2021/12/05 15:03:06;;;;;;;5.55;4.20;;;;;;;3.74;80.08;98656.75;4954768;28;20082;-62
2021/12/05 15:05:35;;;;;;;5.25;4.13;;;;;;;3.75;80.32;98656.75;4978167;28;20399;-62
2021/12/05 15:08:05;;;;;;;4.13;3.72;;;;;;;3.75;80.01;98668.72;4976835;28;20044;-63
2021/12/05 15:10:31;;;;;;;5.68;3.53;;;;;;;3.75;79.87;98667.00;4960724;28;20034;-62
2021/12/05 15:13:02;;;;;;;5.50;4.43;;;;;;;3.76;80.28;98673.03;4976638;28;20049;-63
2021/12/05 15:15:31;;;;;;;6.13;4.57;;;;;;;3.75;80.37;98677.28;4976987;28;20034;-63
2021/12/05 15:18:02;;;;;;;6.15;4.43;;;;;;;3.76;80.07;98675.59;4960528;28;20133;-62
2021/12/05 15:20:32;;;;;;;4.70;3.83;;;;;;;3.77;79.83;98682.44;4960474;28;20125;-62
2021/12/05 15:23:16;;;;;;;5.57;3.67;;;;;;;3.77;80.13;98682.44;4976455;28;20126;-63
2021/12/05 15:25:44;;;;;;;4.85;4.05;;;;;;;3.77;80.67;98690.13;4960931;28;20391;-63
2021/12/05 15:28:11;;;;;;;4.80;3.88;;;;;;;3.75;80.32;98692.66;4960582;28;20035;-63
2021/12/05 15:30:42;;;;;;;5.22;4.03;;;;;;;3.77;80.07;98703.81;4960469;28;20051;-63
2021/12/05 15:33:16;;;;;;;6.00;4.38;;;;;;;3.76;80.49;98704.63;4976445;28;20042;-63
2021/12/05 15:35:46;;;;;;;5.80;4.30;;;;;;;3.76;80.12;98702.06;4976445;28;20066;-63
2021/12/05 15:38:21;;;;;;;5.50;4.57;;;;;;;3.78;80.30;98707.25;4976713;28;20038;-63
2021/12/05 15:41:05;;;;;;;5.85;4.35;;;;;;;3.78;80.28;98705.53;4960361;28;20528;-63
2021/12/05 15:43:34;;;;;;;5.18;4.18;;;;;;;3.78;79.81;98708.09;4960155;28;20034;-62
2021/12/05 15:46:11;;;;;;;4.47;3.70;;;;;;;3.78;79.69;98713.22;4975940;28;20031;-63
2021/12/05 15:48:37;;;;;;;5.85;4.75;;;;;;;3.78;80.08;98718.34;4960449;28;20137;-62
2021/12/05 15:51:09;;;;;;;5.97;4.03;;;;;;;3.79;79.96;98716.66;4977200;28;20085;-62
2021/12/05 15:53:36;;;;;;;4.70;3.67;;;;;;;3.79;80.76;98719.22;4959776;28;20490;-62
2021/12/05 15:56:10;;;;;;;4.50;3.72;;;;;;;3.79;79.89;98729.47;4977176;28;20117;-62
2021/12/05 15:58:46;;;;;;;4.93;4.32;;;;;;;3.79;80.23;98734.59;4976269;28;20117;-62
2021/12/05 16:01:21;;;;;;;5.95;4.72;;;;;;;3.79;80.09;98735.47;4976885;28;20415;-63
2021/12/05 16:03:51;;;;;;;5.50;3.92;;;;;;;3.80;80.44;98742.31;4963194;28;20112;-63
2021/12/05 16:06:20;;;;;;;4.85;4.18;;;;;;;3.79;80.14;98744.84;4963075;28;20405;-63
2021/12/05 16:08:50;;;;;;;6.55;4.38;;;;;;;3.80;80.14;98756.84;4996639;28;20030;-63
2021/12/05 16:11:23;;;;;;;4.30;3.65;;;;;;;3.80;80.44;98761.97;4963496;28;20042;-63
2021/12/05 16:13:53;;;;;;;5.25;4.07;;;;;;;3.79;80.57;98761.09;4996867;28;20471;-63
2021/12/05 16:16:24;;;;;;;4.80;4.00;;;;;;;3.79;80.57;98771.34;4996183;28;20561;-63
2021/12/05 16:18:54;;;;;;;4.40;3.72;;;;;;;3.80;80.64;98765.38;4962773;28;20156;-62
2021/12/05 16:21:28;;;;;;;3.85;3.53;;;;;;;3.80;80.51;98770.50;4996134;28;20449;-63
2021/12/05 16:24:08;;;;;;;5.23;3.80;;;;;;;3.80;80.15;98774.78;4996199;28;20038;-63
2021/12/05 16:26:35;;;;;;;5.63;4.20;;;;;;;3.80;80.40;98778.19;4978961;28;20053;-62
2021/12/05 16:29:06;;;;;;;4.63;4.22;;;;;;;3.80;80.28;98780.75;4962497;28;20041;-62
2021/12/05 16:31:39;;;;;;;4.57;3.72;;;;;;;3.81;80.13;98781.66;4996068;28;20034;-62
2021/12/05 16:34:13;;;;;;;4.78;3.60;;;;;;;3.81;80.14;98789.34;4963077;28;20065;-61
2021/12/05 16:36:46;;;;;;;5.10;4.60;;;;;;;3.81;79.83;98787.63;4978783;28;20034;-62
2021/12/05 16:39:22;;;;;;;5.05;4.22;;;;;;;3.80;79.83;98788.44;4962745;28;20070;-62
2021/12/05 16:41:52;;;;;;;4.45;4.05;;;;;;;3.81;80.00;98799.59;4978393;28;20390;-63
2021/12/05 16:44:24;;;;;;;4.35;3.95;;;;;;;3.81;79.92;98807.28;4962098;28;20133;-62
2021/12/05 16:47:08;;;;;;;5.22;4.20;;;;;;;3.81;80.34;98808.13;4962662;28;20038;-62
2021/12/05 16:49:36;;;;;;;5.90;4.18;;;;;;;3.81;80.28;98812.41;4995820;28;20038;-63
2021/12/05 16:52:08;;;;;;;4.65;4.25;;;;;;;3.83;80.43;98817.56;4978654;28;20092;-62
2021/12/05 16:54:42;;;;;;;4.18;3.78;;;;;;;3.84;80.80;98816.72;4961739;28;20189;-62
2021/12/05 16:57:20;;;;;;;5.20;4.05;;;;;;;3.82;80.32;98821.78;4978231;28;20494;-63
2021/12/05 16:59:52;;;;;;;4.25;3.42;;;;;;;3.83;80.37;98822.69;4977868;28;20555;-63
2021/12/05 17:02:27;;;;;;;4.85;3.72;;;;;;;3.83;80.26;98836.34;4995036;28;20086;-63
2021/12/05 17:05:01;;;;;;;4.47;3.97;;;;;;;3.82;79.89;98839.75;4961801;28;20026;-62
2021/12/05 17:08:02;;;;;;;5.07;4.55;;;;;;;3.83;80.25;98843.19;4961747;28;20493;-63
2021/12/05 17:10:27;;;;;;;4.38;3.35;;;;;;;3.83;80.31;98843.19;4995569;28;20090;-62
2021/12/05 17:13:10;;;;;;;4.05;3.65;;;;;;;3.83;79.72;98845.75;4977776;28;20034;-62